createdAt,value
2022-10-14T00:00:43.701Z,97855.47
2022-10-14T00:03:31.300Z,97855.11
2022-10-14T00:06:04.511Z,97853.82
2022-10-14T00:08:36.266Z,97851.64
2022-10-14T00:11:12.792Z,97852.11
2022-10-14T00:13:43.983Z,97854.38
2022-10-14T00:16:20.939Z,97855.09
2022-10-14T00:18:52.482Z,97856.71
2022-10-14T00:21:23.743Z,97851.30
2022-10-14T00:23:55.051Z,97843.45
2022-10-14T00:26:28.715Z,97845.47
2022-10-14T00:29:01.139Z,97843.95
2022-10-14T00:31:32.769Z,97843.71
2022-10-14T00:34:04.094Z,97842.95
2022-10-14T00:36:35.236Z,97841.66
2022-10-14T00:39:06.277Z,97843.58
2022-10-14T00:41:36.150Z,97845.02
2022-10-14T00:44:09.254Z,97842.95
2022-10-14T00:46:41.759Z,97844.31
2022-10-14T00:49:15.881Z,97840.67
2022-10-14T00:51:50.082Z,97839.20
2022-10-14T00:54:25.503Z,97839.55
2022-10-14T00:56:56.830Z,97841.87
2022-10-14T00:59:28.233Z,97835.37
2022-10-14T01:01:59.334Z,97834.42
2022-10-14T01:04:30.489Z,97834.38
2022-10-14T01:07:03.619Z,97837.52
2022-10-14T01:09:40.084Z,97837.44
2022-10-14T01:12:34.072Z,97833.16
2022-10-14T01:15:12.559Z,97826.73
2022-10-14T01:17:54.045Z,97825.65
2022-10-14T01:20:40.837Z,97826.94
2022-10-14T01:23:32.094Z,97825.48
2022-10-14T01:26:13.755Z,97825.77
2022-10-14T01:28:52.747Z,97826.55
2022-10-14T01:31:31.431Z,97823.73
2022-10-14T01:34:07.342Z,97824.15
2022-10-14T01:36:43.842Z,97825.02
2022-10-14T01:39:19.073Z,97824.13
2022-10-14T01:41:53.766Z,97823.20
2022-10-14T01:44:27.120Z,97820.45
2022-10-14T01:47:00.203Z,97819.52
2022-10-14T01:49:35.803Z,97813.16
2022-10-14T01:52:11.921Z,97817.20
2022-10-14T01:54:46.339Z,97816.27
2022-10-14T01:57:21.592Z,97813.59
2022-10-14T01:59:53.583Z,97812.70
2022-10-14T02:02:25.676Z,97805.56
2022-10-14T02:04:57.064Z,97804.38
2022-10-14T02:07:35.344Z,97801.17
2022-10-14T02:10:20.237Z,97803.57
2022-10-14T02:13:03.904Z,97801.97
2022-10-14T02:15:46.941Z,97797.31
2022-10-14T02:18:25.812Z,97797.95
2022-10-14T02:21:00.908Z,97799.35
2022-10-14T02:23:37.051Z,97796.86
2022-10-14T02:26:09.412Z,97796.63
2022-10-14T02:28:42.457Z,97798.63
2022-10-14T02:31:15.882Z,97802.37
2022-10-14T02:33:51.960Z,97806.30
2022-10-14T02:36:26.361Z,97806.44
2022-10-14T02:39:00.271Z,97805.32
2022-10-14T02:41:35.306Z,97805.33
2022-10-14T02:44:08.091Z,97805.80
2022-10-14T02:46:42.307Z,97806.35
2022-10-14T02:49:13.376Z,97803.26
2022-10-14T02:51:44.335Z,97804.61
2022-10-14T02:54:15.659Z,97804.90
2022-10-14T02:56:47.098Z,97801.66
2022-10-14T02:59:17.990Z,97796.30
2022-10-14T03:01:50.009Z,97790.18
2022-10-14T03:04:21.230Z,97783.78
2022-10-14T03:06:52.914Z,97775.33
2022-10-14T03:09:24.231Z,97774.41
2022-10-14T03:11:55.489Z,97775.86
2022-10-14T03:14:26.446Z,97779.36
2022-10-14T03:16:57.271Z,97781.39
2022-10-14T03:19:28.344Z,97783.56
2022-10-14T03:21:59.463Z,97781.34
2022-10-14T03:24:30.393Z,97781.05
2022-10-14T03:27:01.698Z,97783.71
2022-10-14T03:29:32.810Z,97783.91
2022-10-14T03:32:02.253Z,97785.59
2022-10-14T03:34:33.539Z,97786.05
2022-10-14T03:37:04.535Z,97780.16
2022-10-14T03:39:34.357Z,97776.55
2022-10-14T03:42:06.155Z,97784.12
2022-10-14T03:44:37.082Z,97779.21
2022-10-14T03:47:08.352Z,97776.81
2022-10-14T03:49:39.374Z,97777.54
2022-10-14T03:52:10.607Z,97784.76
2022-10-14T03:54:39.818Z,97792.55
2022-10-14T03:57:10.852Z,97793.16
2022-10-14T03:59:42.359Z,97791.71
2022-10-14T04:02:13.370Z,97789.09
2022-10-14T04:04:45.113Z,97772.30
2022-10-14T04:07:16.317Z,97783.70
2022-10-14T04:09:47.914Z,97776.88
2022-10-14T04:12:19.077Z,97781.30
2022-10-14T04:14:50.161Z,97778.31
2022-10-14T04:17:19.527Z,97774.49
2022-10-14T04:19:50.663Z,97771.05
2022-10-14T04:22:23.476Z,97772.90
2022-10-14T04:24:54.474Z,97767.98
2022-10-14T04:27:25.549Z,97768.13
2022-10-14T04:29:56.351Z,97766.62
2022-10-14T04:32:27.212Z,97761.09
2022-10-14T04:34:58.224Z,97754.14
2022-10-14T04:37:31.319Z,97757.45
2022-10-14T04:40:02.461Z,97756.97
2022-10-14T04:42:33.698Z,97756.61
2022-10-14T04:45:04.806Z,97757.45
2022-10-14T04:47:35.898Z,97752.65
2022-10-14T04:50:07.988Z,97743.60
2022-10-14T04:52:38.966Z,97739.12
2022-10-14T04:55:11.887Z,97742.53
2022-10-14T04:57:44.060Z,97747.52
2022-10-14T05:00:17.043Z,97743.62
2022-10-14T05:02:55.031Z,97739.38
2022-10-14T05:05:29.083Z,97735.45
2022-10-14T05:08:03.057Z,97734.48
2022-10-14T05:10:34.060Z,97731.48
2022-10-14T05:13:05.367Z,97734.77
2022-10-14T05:15:36.506Z,97735.83
2022-10-14T05:18:07.836Z,97737.81
2022-10-14T05:20:39.512Z,97740.34
2022-10-14T05:23:10.553Z,97744.40
2022-10-14T05:25:41.485Z,97746.36
2022-10-14T05:28:10.851Z,97743.58
2022-10-14T05:30:41.621Z,97741.81
2022-10-14T05:33:12.953Z,97743.69
2022-10-14T05:35:58.571Z,97742.19
2022-10-14T05:38:32.030Z,97745.56
2022-10-14T05:41:03.139Z,97742.93
2022-10-14T05:43:34.183Z,97746.89
2022-10-14T05:46:03.492Z,97745.11
2022-10-14T05:48:34.275Z,97743.85
2022-10-14T05:51:05.977Z,97736.54
2022-10-14T05:53:39.263Z,97734.48
2022-10-14T05:56:11.488Z,97734.11
2022-10-14T05:58:42.578Z,97732.99
2022-10-14T06:01:13.884Z,97737.78
2022-10-14T06:03:45.025Z,97733.73
2022-10-14T06:06:16.613Z,97736.56
2022-10-14T06:08:47.664Z,97735.45
2022-10-14T06:11:19.292Z,97728.50
2022-10-14T06:13:50.371Z,97737.21
2022-10-14T06:16:21.783Z,97733.82
2022-10-14T06:18:54.576Z,97728.41
2022-10-14T06:21:26.255Z,97721.91
2022-10-14T06:23:57.675Z,97725.43
2022-10-14T06:26:29.064Z,97725.04
2022-10-14T06:29:00.088Z,97727.02
2022-10-14T06:31:32.437Z,97731.08
2022-10-14T06:34:07.460Z,97731.34
2022-10-14T06:36:38.956Z,97732.80
2022-10-14T06:39:11.099Z,97739.19
2022-10-14T06:41:41.891Z,97737.45
2022-10-14T06:44:13.891Z,97741.19
2022-10-14T06:46:44.939Z,97744.08
2022-10-14T06:49:15.858Z,97744.96
2022-10-14T06:51:46.917Z,97748.29
2022-10-14T06:54:19.735Z,97743.44
2022-10-14T06:56:50.949Z,97750.16
2022-10-14T06:59:21.986Z,97746.28
2022-10-14T07:01:53.158Z,97742.79
2022-10-14T07:04:25.285Z,97745.49
2022-10-14T07:06:58.593Z,97744.45
2022-10-14T07:09:29.553Z,97749.60
2022-10-14T07:12:01.480Z,97752.02
2022-10-14T07:14:32.640Z,97749.67
2022-10-14T07:17:03.974Z,97750.91
2022-10-14T07:19:35.030Z,97751.30
2022-10-14T07:22:06.363Z,97757.11
2022-10-14T07:24:37.586Z,97753.39
2022-10-14T07:27:11.463Z,97747.64
2022-10-14T07:29:42.495Z,97746.81
2022-10-14T07:32:13.756Z,97748.95
2022-10-14T07:34:44.771Z,97753.23
2022-10-14T07:37:15.714Z,97751.98
2022-10-14T07:39:47.073Z,97758.41
2022-10-14T07:42:18.122Z,97757.09
2022-10-14T07:44:49.063Z,97756.94
2022-10-14T07:47:20.781Z,97758.48
2022-10-14T07:50:02.407Z,97761.73
2022-10-14T07:52:33.612Z,97763.13
2022-10-14T07:55:05.351Z,97762.57
2022-10-14T07:57:36.576Z,97763.17
2022-10-14T08:00:09.333Z,97768.17
2022-10-14T08:02:40.907Z,97768.39
2022-10-14T08:05:37.059Z,97768.41
2022-10-14T08:08:03.474Z,97766.27
2022-10-14T08:10:34.358Z,97763.80
2022-10-14T08:13:05.240Z,97766.08
2022-10-14T08:15:40.491Z,97765.31
2022-10-14T08:18:12.906Z,97757.52
2022-10-14T08:20:43.864Z,97764.83
2022-10-14T08:23:27.910Z,97761.45
2022-10-14T08:25:58.952Z,97763.00
2022-10-14T08:28:29.937Z,97764.73
2022-10-14T08:31:01.124Z,97764.95
2022-10-14T08:33:32.134Z,97764.22
2022-10-14T08:36:09.237Z,97759.30
2022-10-14T08:38:40.289Z,97759.17
2022-10-14T08:41:27.815Z,97760.23
2022-10-14T08:44:13.722Z,97758.08
2022-10-14T08:46:51.203Z,97760.42
2022-10-14T08:49:28.379Z,97768.06
2022-10-14T08:52:03.938Z,97767.17
2022-10-14T08:54:40.508Z,97769.64
2022-10-14T08:57:18.159Z,97766.64
2022-10-14T08:59:49.237Z,97766.43
2022-10-14T09:02:28.670Z,97763.92
2022-10-14T09:05:14.546Z,97764.40
2022-10-14T09:07:46.937Z,97762.17
2022-10-14T09:10:24.726Z,97762.64
2022-10-14T09:12:59.630Z,97761.99
2022-10-14T09:15:38.187Z,97769.25
2022-10-14T09:18:21.152Z,97764.40
2022-10-14T09:20:53.000Z,97761.31
2022-10-14T09:23:26.021Z,97760.95
2022-10-14T09:26:06.648Z,97762.15
2022-10-14T09:28:40.622Z,97761.77
2022-10-14T09:31:14.980Z,97764.42
2022-10-14T09:33:47.249Z,97763.62
2022-10-14T09:36:22.184Z,97763.44
2022-10-14T09:38:56.424Z,97766.02
2022-10-14T09:41:31.541Z,97761.16
2022-10-14T09:44:18.718Z,97763.41
2022-10-14T09:46:58.093Z,97763.39
2022-10-14T09:49:39.200Z,97760.41
2022-10-14T09:52:21.579Z,97759.51
2022-10-14T09:54:58.815Z,97756.77
2022-10-14T09:57:45.742Z,97757.27
2022-10-14T10:00:30.840Z,97758.25
2022-10-14T10:03:01.812Z,97760.88
2022-10-14T10:05:34.983Z,97756.95
2022-10-14T10:08:16.164Z,97759.83
2022-10-14T10:11:03.713Z,97755.83
2022-10-14T10:13:43.328Z,97752.70
2022-10-14T10:16:27.190Z,97753.64
2022-10-14T10:19:33.008Z,97750.84
2022-10-14T10:22:43.058Z,97746.30
2022-10-14T10:25:26.763Z,97743.05
2022-10-14T10:28:00.416Z,97738.20
2022-10-14T10:30:36.721Z,97735.19
2022-10-14T10:33:21.291Z,97731.22
2022-10-14T10:36:13.519Z,97727.39
2022-10-14T10:38:56.654Z,97725.29
2022-10-14T10:41:41.926Z,97722.56
2022-10-14T10:44:40.333Z,97720.34
2022-10-14T10:47:31.577Z,97724.88
2022-10-14T10:50:17.019Z,97723.73
2022-10-14T10:53:01.368Z,97720.64
2022-10-14T10:55:41.385Z,97716.95
2022-10-14T10:58:28.280Z,97719.20
2022-10-14T11:01:03.121Z,97715.91
2022-10-14T11:03:53.664Z,97714.73
2022-10-14T11:06:47.825Z,97712.45
2022-10-14T11:09:44.683Z,97709.07
2022-10-14T11:12:23.642Z,97706.05
2022-10-14T11:15:10.981Z,97699.29
2022-10-14T11:17:48.411Z,97700.59
2022-10-14T11:20:50.878Z,97694.59
2022-10-14T11:23:43.843Z,97692.95
2022-10-14T11:26:27.645Z,97689.86
2022-10-14T11:29:06.271Z,97687.27
2022-10-14T11:31:51.508Z,97676.45
2022-10-14T11:34:36.099Z,97682.40
2022-10-14T11:37:22.391Z,97680.18
2022-10-14T11:39:59.474Z,97677.92
2022-10-14T11:42:34.101Z,97674.29
2022-10-14T11:45:21.149Z,97671.11
2022-10-14T11:47:56.039Z,97667.41
2022-10-14T11:50:32.140Z,97668.18
2022-10-14T11:53:13.258Z,97669.00
2022-10-14T11:55:50.874Z,97663.84
2022-10-14T11:58:26.842Z,97662.36
2022-10-14T12:01:02.483Z,97664.28
2022-10-14T12:03:47.174Z,97662.38
2022-10-14T12:06:21.980Z,97654.60
2022-10-14T12:08:57.537Z,97655.36
2022-10-14T12:11:34.230Z,97653.14
2022-10-14T12:14:12.999Z,97654.56
2022-10-14T12:16:47.704Z,97650.71
2022-10-14T12:19:24.882Z,97647.67
2022-10-14T12:21:59.337Z,97648.45
2022-10-14T12:24:35.050Z,97644.29
2022-10-14T12:27:09.675Z,97640.75
2022-10-14T12:30:07.156Z,97644.89
2022-10-14T12:33:06.677Z,97641.42
2022-10-14T12:35:59.476Z,97639.77
2022-10-14T12:38:34.649Z,97639.34
2022-10-14T12:41:39.727Z,97638.17
2022-10-14T12:44:18.791Z,97635.20
2022-10-14T12:46:52.959Z,97630.55
2022-10-14T12:49:29.394Z,97631.05
2022-10-14T12:52:02.997Z,97634.52
2022-10-14T12:54:35.674Z,97630.61
2022-10-14T12:57:17.095Z,97624.85
2022-10-14T12:59:53.136Z,97621.70
2022-10-14T13:02:33.271Z,97622.49
2022-10-14T13:05:07.293Z,97627.31
2022-10-14T13:07:46.573Z,97627.92
2022-10-14T13:10:47.271Z,97625.29
2022-10-14T13:13:58.968Z,97623.75
2022-10-14T13:16:57.361Z,97624.27
2022-10-14T13:19:45.819Z,97622.34
2022-10-14T13:22:39.202Z,97625.58
2022-10-14T13:25:22.036Z,97629.39
2022-10-14T13:28:22.788Z,97626.13
2022-10-14T13:31:03.769Z,97624.66
2022-10-14T13:33:42.790Z,97624.45
2022-10-14T13:36:21.739Z,97622.13
2022-10-14T13:39:00.280Z,97624.73
2022-10-14T13:41:34.704Z,97626.34
2022-10-14T13:44:06.334Z,97632.83
2022-10-14T13:46:41.777Z,97628.06
2022-10-14T13:49:18.453Z,97635.60
2022-10-14T13:51:51.463Z,97633.60
2022-10-14T13:54:24.636Z,97632.90
2022-10-14T14:02:49.056Z,97626.95
2022-10-14T14:05:22.699Z,97626.92
2022-10-14T14:11:15.111Z,97621.58
2022-10-14T14:13:56.102Z,97618.33
2022-10-14T14:16:33.179Z,97618.59
2022-10-14T14:19:09.232Z,97615.04
2022-10-14T14:21:41.301Z,97615.26
2022-10-14T14:24:19.813Z,97615.63
2022-10-14T14:26:53.655Z,97613.92
2022-10-14T14:29:29.219Z,97611.52
2022-10-14T14:32:06.617Z,97608.16
2022-10-14T14:34:39.987Z,97608.85
2022-10-14T14:37:37.072Z,97608.52
2022-10-14T14:40:18.214Z,97605.02
2022-10-14T14:42:51.274Z,97608.52
2022-10-14T14:45:25.625Z,97606.05
2022-10-14T14:47:58.925Z,97600.77
2022-10-14T14:50:33.770Z,97601.45
2022-10-14T14:53:08.473Z,97595.56
2022-10-14T14:56:00.406Z,97592.08
2022-10-14T14:58:36.148Z,97593.23
2022-10-14T15:01:08.367Z,97592.96
2022-10-14T15:04:13.039Z,97589.09
2022-10-14T15:06:50.906Z,97588.38
2022-10-14T15:09:31.691Z,97584.13
2022-10-14T15:12:05.481Z,97581.80
2022-10-14T15:14:43.426Z,97577.70
2022-10-14T15:17:29.530Z,97572.23
2022-10-14T15:20:21.564Z,97567.86
2022-10-14T15:22:52.984Z,97560.90
2022-10-14T15:25:30.251Z,97564.50
2022-10-14T15:28:03.069Z,97565.54
2022-10-14T15:30:51.938Z,97565.79
2022-10-14T15:33:24.930Z,97557.81
2022-10-14T15:36:00.050Z,97555.21
2022-10-14T15:41:07.750Z,97547.26
2022-10-14T15:43:40.051Z,97543.13
2022-10-14T15:46:26.331Z,97542.61
2022-10-14T15:49:03.217Z,97549.33
2022-10-14T15:51:34.400Z,97549.30
2022-10-14T15:54:06.497Z,97549.04
2022-10-14T15:56:39.246Z,97553.70
2022-10-14T15:59:10.174Z,97555.70
2022-10-14T16:01:41.653Z,97555.64
2022-10-14T16:04:19.702Z,97555.34
2022-10-14T16:07:35.385Z,97559.16
2022-10-14T16:10:13.006Z,97560.05
2022-10-14T16:12:44.296Z,97561.35
2022-10-14T16:15:26.277Z,97565.91
2022-10-14T16:17:57.441Z,97565.46
2022-10-14T16:20:31.002Z,97563.15
2022-10-14T16:23:04.723Z,97561.09
2022-10-14T16:25:40.037Z,97556.85
2022-10-14T16:28:11.538Z,97560.18
2022-10-14T16:30:46.224Z,97561.60
2022-10-14T16:33:19.263Z,97564.46
2022-10-14T16:35:54.495Z,97567.44
2022-10-14T16:38:26.005Z,97565.12
2022-10-14T16:41:21.124Z,97563.70
2022-10-14T16:43:55.048Z,97558.38
2022-10-14T16:46:45.988Z,97558.41
2022-10-14T16:49:17.175Z,97558.40
2022-10-14T16:51:48.318Z,97560.35
2022-10-14T16:54:28.638Z,97559.69
2022-10-14T16:56:59.613Z,97562.18
2022-10-14T16:59:30.730Z,97557.58
2022-10-14T17:02:03.038Z,97561.10
2022-10-14T17:04:34.030Z,97569.20
2022-10-14T17:07:07.575Z,97573.39
2022-10-14T17:09:42.746Z,97573.40
2022-10-14T17:12:14.263Z,97573.31
2022-10-14T17:15:12.609Z,97568.77
2022-10-14T17:17:43.754Z,97567.56
2022-10-14T17:20:14.510Z,97568.20
2022-10-14T17:22:44.099Z,97561.86
2022-10-14T17:25:13.834Z,97562.33
2022-10-14T17:27:44.761Z,97559.68
2022-10-14T17:30:16.836Z,97556.98
2022-10-14T17:32:47.769Z,97552.54
2022-10-14T17:35:17.108Z,97555.37
2022-10-14T17:37:47.932Z,97554.96
2022-10-14T17:40:18.746Z,97553.92
2022-10-14T17:42:51.000Z,97551.66
2022-10-14T17:45:21.853Z,97555.48
2022-10-14T17:47:51.119Z,97551.38
2022-10-14T17:50:22.847Z,97552.02
2022-10-14T17:52:53.822Z,97553.48
2022-10-14T17:55:25.173Z,97554.88
2022-10-14T17:57:56.201Z,97549.23
2022-10-14T18:00:25.565Z,97554.10
2022-10-14T18:02:56.514Z,97560.38
2022-10-14T18:05:26.255Z,97561.73
2022-10-14T18:07:57.407Z,97561.09
2022-10-14T18:10:28.793Z,97556.25
2022-10-14T18:12:59.969Z,97552.69
2022-10-14T18:15:31.350Z,97548.16
2022-10-14T18:18:02.302Z,97549.66
2022-10-14T18:20:35.003Z,97546.28
2022-10-14T18:23:07.636Z,97550.12
2022-10-14T18:25:38.608Z,97548.94
2022-10-14T18:28:07.960Z,97547.38
2022-10-14T18:30:38.872Z,97547.16
2022-10-14T18:33:08.197Z,97543.51
2022-10-14T18:35:39.351Z,97543.92
2022-10-14T18:38:08.670Z,97541.73
2022-10-14T18:40:39.650Z,97543.30
2022-10-14T18:43:10.597Z,97541.50
2022-10-14T18:45:41.427Z,97541.66
2022-10-14T18:48:13.468Z,97543.66
2022-10-14T18:50:44.378Z,97547.89
2022-10-14T18:53:15.274Z,97549.38
2022-10-14T18:55:46.266Z,97547.63
2022-10-14T18:58:20.082Z,97545.19
2022-10-14T19:00:51.977Z,97548.64
2022-10-14T19:03:23.278Z,97545.31
2022-10-14T19:05:54.344Z,97545.45
2022-10-14T19:08:25.109Z,97540.70
2022-10-14T19:11:03.103Z,97537.55
2022-10-14T19:13:34.719Z,97537.30
2022-10-14T19:16:08.328Z,97534.30
2022-10-14T19:18:39.259Z,97534.70
2022-10-14T19:21:12.320Z,97534.44
2022-10-14T19:23:45.131Z,97529.09
2022-10-14T19:26:18.192Z,97527.08
2022-10-14T19:28:50.288Z,97521.72
2022-10-14T19:31:24.959Z,97525.27
2022-10-14T19:33:56.897Z,97528.39
2022-10-14T19:36:28.280Z,97531.14
2022-10-14T19:39:00.015Z,97524.27
2022-10-14T19:41:32.632Z,97524.95
2022-10-14T19:44:03.843Z,97527.44
2022-10-14T19:46:33.142Z,97525.32
2022-10-14T19:49:04.848Z,97523.95
2022-10-14T19:51:36.553Z,97518.48
2022-10-14T19:54:08.054Z,97513.79
2022-10-14T19:56:39.003Z,97513.19
2022-10-14T19:59:10.653Z,97514.75
2022-10-14T20:01:41.607Z,97516.77
2022-10-14T20:04:12.715Z,97513.73
2022-10-14T20:06:45.091Z,97511.87
2022-10-14T20:09:16.347Z,97506.48
2022-10-14T20:11:47.808Z,97509.23
2022-10-14T20:14:19.072Z,97506.04
2022-10-14T20:16:53.606Z,97510.16
2022-10-14T20:19:27.325Z,97512.13
2022-10-14T20:22:00.616Z,97512.61
2022-10-14T20:24:32.424Z,97508.71
2022-10-14T20:27:05.613Z,97508.51
2022-10-14T20:29:39.402Z,97511.23
2022-10-14T20:32:10.519Z,97511.48
2022-10-14T20:34:41.908Z,97506.63
2022-10-14T20:37:12.818Z,97499.75
2022-10-14T20:39:44.038Z,97494.66
2022-10-14T20:42:15.045Z,97492.76
2022-10-14T20:44:45.985Z,97490.23
2022-10-14T20:47:17.187Z,97486.04
2022-10-14T20:49:48.351Z,97483.80
2022-10-14T20:52:19.294Z,97479.77
2022-10-14T20:54:50.603Z,97481.34
2022-10-14T20:57:21.772Z,97476.77
2022-10-14T20:59:52.988Z,97480.27
2022-10-14T21:02:24.831Z,97481.40
2022-10-14T21:04:56.149Z,97478.52
2022-10-14T21:07:27.700Z,97473.44
2022-10-14T21:09:58.583Z,97470.56
2022-10-14T21:12:29.591Z,97468.16
2022-10-14T21:15:00.764Z,97469.59
2022-10-14T21:17:31.695Z,97469.03
2022-10-14T21:20:02.854Z,97464.52
2022-10-14T21:22:33.904Z,97460.36
2022-10-14T21:25:04.834Z,97461.39
2022-10-14T21:27:35.757Z,97464.55
2022-10-14T21:30:05.422Z,97466.11
2022-10-14T21:32:36.593Z,97464.27
2022-10-14T21:35:09.045Z,97462.96
2022-10-14T21:37:40.008Z,97460.38
2022-10-14T21:40:13.048Z,97454.24
2022-10-14T21:42:44.314Z,97447.73
2022-10-14T21:45:15.217Z,97445.15
2022-10-14T21:47:46.542Z,97444.38
2022-10-14T21:50:17.885Z,97438.98
2022-10-14T21:52:48.856Z,97432.06
2022-10-14T21:55:19.979Z,97440.87
2022-10-14T21:57:51.516Z,97442.48
2022-10-14T22:00:22.663Z,97441.47
2022-10-14T22:02:55.737Z,97438.38
2022-10-14T22:05:26.837Z,97436.04
2022-10-14T22:07:57.764Z,97433.18
2022-10-14T22:10:44.865Z,97434.84
2022-10-14T22:13:15.712Z,97434.64
2022-10-14T22:15:46.744Z,97437.02
2022-10-14T22:18:17.731Z,97437.38
2022-10-14T22:20:49.253Z,97433.90
2022-10-14T22:23:20.140Z,97439.38
2022-10-14T22:25:49.610Z,97442.41
2022-10-14T22:28:20.681Z,97442.78
2022-10-14T22:30:51.878Z,97441.59
2022-10-14T22:33:23.025Z,97435.50
2022-10-14T22:35:53.915Z,97433.63
2022-10-14T22:38:24.840Z,97434.23
2022-10-14T22:40:55.676Z,97435.14
2022-10-14T22:43:26.483Z,97430.88
2022-10-14T22:46:03.510Z,97429.48
2022-10-14T22:48:34.811Z,97423.94
2022-10-14T22:51:08.057Z,97420.45
2022-10-14T22:53:40.347Z,97414.02
2022-10-14T22:56:13.741Z,97416.60
2022-10-14T22:58:44.798Z,97421.42
2022-10-14T23:01:17.496Z,97431.68
2022-10-14T23:03:48.335Z,97437.61
2022-10-14T23:06:19.386Z,97438.27
2022-10-14T23:08:50.952Z,97429.11
2022-10-14T23:11:23.512Z,97420.91
2022-10-14T23:13:55.030Z,97417.16
2022-10-14T23:16:28.125Z,97412.06
2022-10-14T23:19:00.591Z,97411.87
2022-10-14T23:21:33.066Z,97406.56
2022-10-14T23:24:06.269Z,97393.78
2022-10-14T23:26:38.058Z,97384.06
2022-10-14T23:29:11.580Z,97378.23
2022-10-14T23:31:42.737Z,97376.67
2022-10-14T23:34:13.666Z,97373.41
2022-10-14T23:36:44.816Z,97372.73
2022-10-14T23:39:16.155Z,97371.38
2022-10-14T23:41:47.204Z,97370.45
2022-10-14T23:44:18.284Z,97365.24
2022-10-14T23:46:50.378Z,97366.30
2022-10-14T23:49:25.901Z,97358.94
2022-10-14T23:51:57.611Z,97360.71
2022-10-14T23:54:28.411Z,97365.73
2022-10-14T23:56:59.293Z,97370.81
2022-10-14T23:59:30.158Z,97371.89
